Time;durP1;ratioP1;P1;durP2;ratioP2;P2;SDS_P1;SDS_P2;PMS_P1;PMS_P2;Temp;Humidity;BMP_temperature;BMP_pressure;BME280_temperature;BME280_humidity;BME280_pressure;Samples;Min_cycle;Max_cycle;Signal;HPM_P1;HPM_P2
2022/01/18 00:00:45;;;;;;;5.90;3.27;;;1.70;99.90;;;;;;2088750;28;20260;-70
2022/01/18 00:01:47;;;;;;;5.43;3.30;;;1.70;99.90;;;;;;2088705;28;20275;-70
2022/01/18 00:02:47;;;;;;;4.85;2.97;;;1.70;99.90;;;;;;2089910;28;20646;-70
2022/01/18 00:03:48;;;;;;;7.90;4.20;;;1.80;99.90;;;;;;2091020;28;20180;-70
2022/01/18 00:04:49;;;;;;;5.90;3.70;;;1.80;99.90;;;;;;2090730;28;20188;-70
2022/01/18 00:05:50;;;;;;;6.43;3.90;;;1.80;99.90;;;;;;2090910;28;20177;-70
2022/01/18 00:06:53;;;;;;;5.68;4.00;;;1.70;99.90;;;;;;2090854;28;20283;-71
2022/01/18 00:07:54;;;;;;;6.72;4.43;;;1.70;99.90;;;;;;2089945;28;20216;-70
2022/01/18 00:08:55;;;;;;;6.63;4.18;;;1.60;99.90;;;;;;2090367;28;20203;-70
2022/01/18 00:09:56;;;;;;;8.00;4.07;;;1.60;99.90;;;;;;2090926;28;20181;-70
2022/01/18 00:10:56;;;;;;;7.63;4.70;;;1.70;99.90;;;;;;2090170;28;20179;-70
2022/01/18 00:12:14;;;;;;;7.93;3.90;;;1.60;99.90;;;;;;2090399;28;20246;-70
2022/01/18 00:13:37;;;;;;;7.82;4.15;;;1.60;99.90;;;;;;2090903;28;20169;-70
2022/01/18 00:14:44;;;;;;;8.50;4.47;;;1.40;99.90;;;;;;2090853;28;20177;-69
2022/01/18 00:16:08;;;;;;;6.40;3.95;;;1.30;99.90;;;;;;2098222;28;20259;-70
2022/01/18 00:17:29;;;;;;;9.25;4.60;;;1.30;99.90;;;;;;2095006;28;20275;-69
2022/01/18 00:18:34;;;;;;;7.13;4.28;;;1.30;99.90;;;;;;2092915;28;20157;-70
2022/01/18 00:19:40;;;;;;;7.95;4.28;;;1.20;99.90;;;;;;2090025;28;20204;-70
2022/01/18 00:22:11;;;;;;;7.05;3.88;;;1.10;99.90;;;;;;2094946;28;20243;-70
2022/01/18 00:23:11;;;;;;;7.13;4.35;;;1.00;99.90;;;;;;2090771;28;20621;-70
2022/01/18 00:24:12;;;;;;;8.80;4.10;;;1.00;99.90;;;;;;2090769;28;20251;-69
2022/01/18 00:25:13;;;;;;;8.10;5.17;;;0.90;99.90;;;;;;2090797;28;20698;-70
2022/01/18 00:26:14;;;;;;;7.93;4.63;;;0.90;99.90;;;;;;2089864;28;20705;-70
2022/01/18 00:27:16;;;;;;;8.30;4.10;;;0.90;99.90;;;;;;2089930;28;20677;-70
2022/01/18 00:28:18;;;;;;;7.20;4.50;;;0.90;99.90;;;;;;2090406;28;21019;-70
2022/01/18 00:29:22;;;;;;;8.75;4.30;;;0.80;99.90;;;;;;2090604;28;20192;-70
2022/01/18 00:34:53;;;;;;;7.80;4.82;;;0.80;99.90;;;;;;2085293;28;20179;-70
2022/01/18 00:36:01;;;;;;;12.75;5.28;;;0.80;99.90;;;;;;2090224;28;20180;-69
2022/01/18 00:38:16;;;;;;;9.35;5.10;;;0.90;99.90;;;;;;2091306;28;20302;-70
2022/01/18 00:39:17;;;;;;;10.05;4.72;;;1.00;99.90;;;;;;2096640;28;20198;-70
2022/01/18 00:40:17;;;;;;;12.67;5.23;;;1.00;99.90;;;;;;2097875;28;20254;-69
2022/01/18 00:41:22;;;;;;;9.43;5.27;;;1.00;99.90;;;;;;2089954;28;20172;-69
2022/01/18 00:42:23;;;;;;;13.00;6.20;;;1.00;99.90;;;;;;2082331;28;20567;-70
2022/01/18 00:43:24;;;;;;;9.23;5.43;;;1.10;99.90;;;;;;2089906;28;20185;-69
2022/01/18 00:44:25;;;;;;;10.10;5.63;;;1.10;99.90;;;;;;2089758;28;20188;-69
2022/01/18 00:45:26;;;;;;;10.98;5.70;;;1.10;99.90;;;;;;2089953;28;20266;-70
2022/01/18 00:46:27;;;;;;;9.03;5.30;;;1.20;99.90;;;;;;2090057;28;21040;-70
2022/01/18 00:47:27;;;;;;;9.00;5.55;;;1.20;99.90;;;;;;2089607;28;20236;-70
2022/01/18 00:48:32;;;;;;;12.37;5.83;;;1.30;99.90;;;;;;2098174;28;20176;-70
2022/01/18 00:49:40;;;;;;;11.25;5.85;;;1.30;99.90;;;;;;2090543;28;20231;-69
2022/01/18 00:50:41;;;;;;;10.15;5.55;;;1.30;99.90;;;;;;2090757;28;20235;-69
2022/01/18 00:51:44;;;;;;;12.37;5.43;;;1.30;99.90;;;;;;2090573;28;20221;-71
2022/01/18 00:52:50;;;;;;;10.43;5.82;;;1.40;99.90;;;;;;2089916;28;20180;-69
2022/01/18 00:53:51;;;;;;;8.13;5.18;;;1.50;99.90;;;;;;2082830;28;20635;-70
2022/01/18 00:54:52;;;;;;;12.73;5.67;;;1.50;99.90;;;;;;2082402;28;20266;-71
2022/01/18 00:56:07;;;;;;;9.55;5.25;;;1.50;99.90;;;;;;2089930;28;20236;-70
2022/01/18 00:57:08;;;;;;;8.88;4.60;;;1.60;99.90;;;;;;2089823;28;20192;-70
2022/01/18 00:58:08;;;;;;;11.07;5.43;;;1.70;99.90;;;;;;2089706;28;20582;-70
2022/01/18 00:59:09;;;;;;;9.67;6.07;;;1.70;99.90;;;;;;2090260;28;20207;-69
2022/01/18 01:00:11;;;;;;;11.77;5.23;;;1.80;99.90;;;;;;2091634;28;20199;-70
2022/01/18 01:01:11;;;;;;;9.45;5.25;;;1.80;99.90;;;;;;2092767;28;20269;-70
2022/01/18 01:02:14;;;;;;;8.53;5.10;;;1.70;99.90;;;;;;2091409;28;20247;-70
2022/01/18 01:03:14;;;;;;;8.93;5.47;;;1.60;99.90;;;;;;2098166;28;20168;-70
2022/01/18 01:04:16;;;;;;;8.37;5.20;;;1.60;99.90;;;;;;2098102;28;20184;-69
2022/01/18 01:05:16;;;;;;;12.48;5.88;;;1.60;99.90;;;;;;2089911;28;20207;-70
2022/01/18 01:06:17;;;;;;;13.13;5.73;;;1.60;99.90;;;;;;2081583;28;20189;-70
2022/01/18 01:07:22;;;;;;;10.13;5.53;;;1.70;99.90;;;;;;2089312;28;20732;-70
2022/01/18 01:08:23;;;;;;;10.15;5.70;;;1.70;99.90;;;;;;2090288;28;20219;-69
2022/01/18 01:09:23;;;;;;;8.60;4.77;;;1.70;99.90;;;;;;2090230;28;20707;-70
2022/01/18 01:10:24;;;;;;;9.73;5.27;;;1.80;99.90;;;;;;2089748;28;20617;-70
2022/01/18 01:11:26;;;;;;;8.20;5.53;;;1.80;99.90;;;;;;2081289;28;20574;-70
2022/01/18 01:12:27;;;;;;;9.48;4.68;;;1.90;99.90;;;;;;2081650;28;20273;-70
2022/01/18 01:13:30;;;;;;;7.45;4.72;;;1.90;99.90;;;;;;2081305;28;20193;-70
2022/01/18 01:14:32;;;;;;;10.68;5.82;;;1.90;99.90;;;;;;2088938;28;20262;-70
2022/01/18 01:15:40;;;;;;;11.45;6.32;;;2.00;99.90;;;;;;2097623;28;20195;-70
2022/01/18 01:18:20;;;;;;;11.43;6.38;;;1.90;99.90;;;;;;2092887;28;20200;-70
2022/01/18 01:19:45;;;;;;;9.10;5.57;;;1.80;99.90;;;;;;2093130;28;20196;-70
2022/01/18 01:34:09;;;;;;;9.43;5.57;;;2.00;99.90;;;;;;2089945;28;20191;-70
2022/01/18 01:36:37;;;;;;;10.45;5.05;;;2.10;99.90;;;;;;2085135;28;20181;-70
2022/01/18 01:42:01;;;;;;;8.77;4.38;;;2.00;99.90;;;;;;2090041;28;20173;-70
2022/01/18 01:44:25;;;;;;;7.10;4.13;;;1.80;99.90;;;;;;2083733;28;20256;-70
2022/01/18 01:45:28;;;;;;;9.63;5.53;;;1.70;99.90;;;;;;2089679;28;20706;-70
2022/01/18 01:46:30;;;;;;;8.98;5.63;;;1.70;99.90;;;;;;2089482;28;20267;-70
2022/01/18 01:47:35;;;;;;;10.38;5.80;;;1.70;99.90;;;;;;2081022;28;20261;-70
2022/01/18 01:48:36;;;;;;;10.32;5.40;;;1.70;99.90;;;;;;2089614;28;20165;-69
2022/01/18 01:49:38;;;;;;;10.83;5.57;;;1.70;99.90;;;;;;2090044;28;20677;-69
2022/01/18 01:50:51;;;;;;;9.63;5.20;;;1.70;99.90;;;;;;2090058;28;20185;-70
2022/01/18 01:51:52;;;;;;;11.10;6.13;;;1.70;99.90;;;;;;2090148;28;20179;-70
2022/01/18 01:52:55;;;;;;;10.77;6.00;;;1.70;99.90;;;;;;2090062;28;20643;-70
2022/01/18 01:54:10;;;;;;;10.45;6.20;;;1.70;99.90;;;;;;2090008;28;20687;-70
2022/01/18 01:55:12;;;;;;;9.00;5.03;;;1.70;99.90;;;;;;2089983;28;20645;-70
2022/01/18 01:56:12;;;;;;;8.65;5.57;;;1.70;99.90;;;;;;2097835;28;20263;-70
2022/01/18 01:57:13;;;;;;;13.80;5.67;;;1.80;99.90;;;;;;2088975;28;20636;-70
2022/01/18 01:58:15;;;;;;;9.93;5.73;;;1.90;99.90;;;;;;2080988;28;20196;-70
2022/01/18 01:59:16;;;;;;;11.50;6.10;;;1.90;99.90;;;;;;2073060;28;20201;-70
2022/01/18 02:00:20;;;;;;;11.60;5.73;;;1.80;99.90;;;;;;2081084;28;20178;-69
2022/01/18 02:01:20;;;;;;;12.40;6.18;;;1.80;99.90;;;;;;2089384;28;20176;-69
2022/01/18 02:02:21;;;;;;;9.70;5.10;;;1.80;99.90;;;;;;2081091;28;20181;-70
2022/01/18 02:03:23;;;;;;;11.50;6.70;;;1.90;99.90;;;;;;2081014;28;20260;-70
2022/01/18 02:04:24;;;;;;;10.73;6.00;;;1.90;99.90;;;;;;2081485;28;20264;-69
2022/01/18 02:05:25;;;;;;;10.95;6.10;;;2.00;99.90;;;;;;2081149;28;20184;-70
2022/01/18 02:06:25;;;;;;;12.40;6.70;;;1.90;99.90;;;;;;2089332;28;20218;-70
2022/01/18 02:07:26;;;;;;;10.27;6.07;;;1.90;99.90;;;;;;2097329;28;20179;-70
2022/01/18 02:08:28;;;;;;;13.40;6.60;;;1.90;99.90;;;;;;2089179;28;20184;-70
2022/01/18 02:09:28;;;;;;;10.93;5.93;;;1.90;99.90;;;;;;2089564;28;20181;-70
2022/01/18 02:10:29;;;;;;;12.57;6.13;;;1.90;99.90;;;;;;2097382;28;20685;-70
2022/01/18 02:11:30;;;;;;;11.73;6.27;;;2.00;99.90;;;;;;2089770;28;20188;-70
2022/01/18 02:12:31;;;;;;;11.85;5.60;;;2.00;99.90;;;;;;2089812;28;20185;-69
2022/01/18 02:13:33;;;;;;;14.13;6.50;;;2.10;99.90;;;;;;2089821;28;20184;-70
2022/01/18 02:14:34;;;;;;;10.13;6.20;;;2.10;99.90;;;;;;2089331;28;20188;-70
2022/01/18 02:15:43;;;;;;;10.53;5.47;;;2.20;99.90;;;;;;2089230;28;20598;-70
2022/01/18 02:22:05;;;;;;;12.75;5.50;;;2.20;99.90;;;;;;2089861;28;20235;-70
2022/01/18 02:23:05;;;;;;;13.52;6.82;;;2.20;99.90;;;;;;2089835;28;20872;-70
2022/01/18 02:24:08;;;;;;;9.93;5.77;;;2.20;99.90;;;;;;2089737;28;20174;-70
2022/01/18 02:25:09;;;;;;;10.23;5.25;;;2.20;99.90;;;;;;2097510;28;20204;-70
2022/01/18 02:26:09;;;;;;;11.13;5.83;;;2.20;99.90;;;;;;2088367;28;20178;-69
2022/01/18 02:27:10;;;;;;;11.33;5.90;;;2.20;99.90;;;;;;2089166;28;20659;-70
2022/01/18 02:28:11;;;;;;;11.60;6.67;;;2.30;99.90;;;;;;2080784;28;20317;-69
2022/01/18 02:29:13;;;;;;;14.15;6.47;;;2.30;99.90;;;;;;2072755;28;20706;-70
2022/01/18 02:30:14;;;;;;;11.77;6.18;;;2.30;99.90;;;;;;2081075;28;20186;-71
2022/01/18 02:31:15;;;;;;;12.65;7.22;;;2.30;99.90;;;;;;2080833;28;20254;-70
2022/01/18 02:32:15;;;;;;;10.83;5.60;;;2.30;99.90;;;;;;2089130;28;20197;-70
2022/01/18 02:33:17;;;;;;;10.47;5.63;;;2.30;99.90;;;;;;2089081;28;20176;-70
2022/01/18 02:34:19;;;;;;;13.02;6.30;;;2.30;99.90;;;;;;2089129;28;20181;-70
2022/01/18 02:35:20;;;;;;;11.82;5.68;;;2.30;99.90;;;;;;2089007;28;20228;-70
2022/01/18 02:36:20;;;;;;;14.57;7.20;;;2.30;99.90;;;;;;2089091;28;20187;-70
2022/01/18 02:37:21;;;;;;;13.33;6.60;;;2.30;99.90;;;;;;2088816;28;20231;-70
2022/01/18 02:38:22;;;;;;;11.53;5.97;;;2.20;99.90;;;;;;2088944;28;20200;-70
2022/01/18 02:39:27;;;;;;;11.93;6.10;;;2.20;99.90;;;;;;2089484;28;20211;-70
2022/01/18 02:40:29;;;;;;;10.20;5.45;;;2.20;99.90;;;;;;2088818;28;20651;-70
2022/01/18 02:41:31;;;;;;;13.07;6.50;;;2.20;99.90;;;;;;2081035;28;20203;-70
2022/01/18 02:42:41;;;;;;;15.43;6.28;;;2.20;99.90;;;;;;2081251;28;20603;-70
2022/01/18 02:43:49;;;;;;;11.00;5.85;;;2.10;99.90;;;;;;2089032;28;20190;-70
2022/01/18 02:44:50;;;;;;;13.25;6.50;;;2.10;99.90;;;;;;2089693;28;20165;-69
2022/01/18 02:45:52;;;;;;;14.48;7.13;;;2.10;99.90;;;;;;2088974;28;20231;-70
2022/01/18 02:46:54;;;;;;;11.35;6.10;;;2.10;99.90;;;;;;2072869;28;20181;-70
2022/01/18 02:47:55;;;;;;;11.77;6.18;;;2.00;99.90;;;;;;2064227;28;20203;-70
2022/01/18 02:48:57;;;;;;;14.48;6.38;;;2.10;99.90;;;;;;2080919;28;20178;-70
2022/01/18 02:49:58;;;;;;;10.23;5.53;;;2.10;99.90;;;;;;2081072;28;20182;-69
2022/01/18 02:50:59;;;;;;;13.40;6.30;;;2.10;99.90;;;;;;2080668;28;20227;-70
2022/01/18 02:52:00;;;;;;;13.07;6.97;;;2.00;99.90;;;;;;2089152;28;20305;-70
2022/01/18 02:53:01;;;;;;;12.93;6.25;;;2.10;99.90;;;;;;2089707;28;20571;-70
2022/01/18 02:54:11;;;;;;;14.70;6.60;;;2.10;99.90;;;;;;2089662;28;20184;-70
2022/01/18 02:55:11;;;;;;;13.98;6.13;;;2.10;99.90;;;;;;2089674;28;20681;-69
2022/01/18 02:56:12;;;;;;;16.17;6.70;;;2.10;99.90;;;;;;2080514;28;20229;-70
2022/01/18 02:57:15;;;;;;;10.97;6.00;;;2.20;99.90;;;;;;2080652;28;20186;-70
2022/01/18 02:58:24;;;;;;;18.08;7.53;;;2.10;99.90;;;;;;2088806;28;20186;-70
2022/01/18 02:59:33;;;;;;;13.30;6.90;;;2.20;99.90;;;;;;2082055;28;20264;-69
2022/01/18 03:03:12;;;;;;;11.80;6.13;;;2.20;99.90;;;;;;2082970;28;20158;-70
2022/01/18 03:03:39;;;;;;;11.55;5.15;;;2.20;99.90;;;;;;2089489;28;20180;-70
2022/01/18 03:04:42;;;;;;;13.80;6.43;;;2.30;99.90;;;;;;2089683;28;20174;-70
2022/01/18 03:05:45;;;;;;;11.70;5.90;;;2.30;99.90;;;;;;2089075;28;20253;-70
2022/01/18 03:06:46;;;;;;;15.48;6.20;;;2.30;99.90;;;;;;2080892;28;20192;-70
2022/01/18 03:07:46;;;;;;;10.50;5.37;;;2.40;99.90;;;;;;2080424;28;20209;-70
2022/01/18 03:08:47;;;;;;;16.57;6.87;;;2.30;99.90;;;;;;2080708;28;20231;-70
2022/01/18 03:09:47;;;;;;;10.47;5.50;;;2.30;99.90;;;;;;2080775;28;20272;-70
2022/01/18 03:10:48;;;;;;;14.33;6.23;;;2.30;99.90;;;;;;2088828;28;20181;-70
2022/01/18 03:11:49;;;;;;;14.70;6.70;;;2.30;99.90;;;;;;2089474;28;20180;-70
2022/01/18 03:12:49;;;;;;;13.60;6.10;;;2.20;99.90;;;;;;2089422;28;20174;-70
2022/01/18 03:13:50;;;;;;;12.43;6.33;;;2.30;99.90;;;;;;2089618;28;20193;-69
2022/01/18 03:14:51;;;;;;;10.27;6.03;;;2.30;99.90;;;;;;2088733;28;20191;-71
2022/01/18 03:15:52;;;;;;;12.83;6.27;;;2.30;99.90;;;;;;2088928;28;20712;-69
2022/01/18 03:16:53;;;;;;;12.73;6.68;;;2.40;99.90;;;;;;2089106;28;20555;-70
2022/01/18 03:17:53;;;;;;;15.37;7.10;;;2.40;99.90;;;;;;2088496;28;20207;-70
2022/01/18 03:18:54;;;;;;;16.77;7.33;;;2.30;99.90;;;;;;2088654;28;20774;-70
2022/01/18 03:19:55;;;;;;;16.30;8.17;;;2.30;99.90;;;;;;2089481;28;20207;-69
2022/01/18 03:20:56;;;;;;;15.87;6.40;;;2.30;99.90;;;;;;2088968;28;20200;-70
2022/01/18 03:21:57;;;;;;;13.95;6.47;;;2.30;99.90;;;;;;2072699;28;20192;-70
2022/01/18 03:22:58;;;;;;;13.50;6.30;;;2.30;99.90;;;;;;2080622;28;20215;-70
2022/01/18 03:24:12;;;;;;;14.30;7.73;;;2.30;99.90;;;;;;2089639;28;20713;-70
2022/01/18 03:25:29;;;;;;;16.63;6.25;;;2.30;99.90;;;;;;2088457;28;20177;-70
2022/01/18 03:28:03;;;;;;;10.50;6.00;;;2.40;99.90;;;;;;2085225;28;20165;-70
2022/01/18 03:28:05;;;;;;;10.77;5.97;;;2.40;99.90;;;;;;2081014;28;20208;-70
2022/01/18 03:29:05;;;;;;;12.98;6.55;;;2.50;99.90;;;;;;2080790;28;20197;-70
2022/01/18 03:30:09;;;;;;;14.30;6.07;;;2.50;99.90;;;;;;2074202;28;20229;-70
2022/01/18 03:31:10;;;;;;;16.33;5.80;;;2.40;99.90;;;;;;2081020;28;20530;-70
2022/01/18 03:32:11;;;;;;;15.73;6.50;;;2.40;99.90;;;;;;2088862;28;20204;-70
2022/01/18 03:33:18;;;;;;;14.70;7.10;;;2.50;99.90;;;;;;2081053;28;20675;-70
2022/01/18 03:34:18;;;;;;;15.23;6.63;;;2.50;99.90;;;;;;2080630;28;20176;-69
2022/01/18 03:35:21;;;;;;;16.40;6.80;;;2.40;99.90;;;;;;2080501;28;20185;-70
2022/01/18 03:36:21;;;;;;;15.48;7.65;;;2.40;99.90;;;;;;2088797;28;20249;-70
2022/01/18 03:37:22;;;;;;;13.43;6.93;;;2.30;99.90;;;;;;2080991;28;20723;-70
2022/01/18 03:38:29;;;;;;;12.30;6.47;;;2.30;99.90;;;;;;2082221;28;20197;-70
2022/01/18 03:39:30;;;;;;;16.60;7.45;;;2.30;99.90;;;;;;2082148;28;20603;-69
2022/01/18 03:40:31;;;;;;;10.83;5.73;;;2.30;99.90;;;;;;2082297;28;20198;-70
2022/01/18 03:41:32;;;;;;;15.55;7.00;;;2.30;99.90;;;;;;2073953;28;20181;-71
2022/01/18 03:43:35;;;;;;;12.20;6.93;;;2.40;99.90;;;;;;2090296;28;20650;-70
2022/01/18 03:44:35;;;;;;;21.17;8.25;;;2.40;99.90;;;;;;2082188;28;20826;-70
2022/01/18 03:45:41;;;;;;;16.37;7.03;;;2.40;99.90;;;;;;2082266;28;20191;-70
2022/01/18 03:46:42;;;;;;;11.98;6.30;;;2.40;99.90;;;;;;2081974;28;20654;-71
2022/01/18 03:47:45;;;;;;;14.27;6.10;;;2.40;99.90;;;;;;2081728;28;20180;-70
2022/01/18 03:48:50;;;;;;;16.02;7.03;;;2.40;99.90;;;;;;2082077;28;20236;-71
2022/01/18 03:49:51;;;;;;;15.20;6.53;;;2.50;99.90;;;;;;2082174;28;20189;-71
2022/01/18 03:50:52;;;;;;;15.03;6.63;;;2.50;99.90;;;;;;2082228;28;20196;-70
2022/01/18 03:51:52;;;;;;;18.65;8.25;;;2.50;99.90;;;;;;2082042;28;20179;-70
2022/01/18 03:52:54;;;;;;;18.27;7.77;;;2.40;99.90;;;;;;2082259;28;20274;-70
2022/01/18 03:53:54;;;;;;;16.83;7.45;;;2.40;99.90;;;;;;2082070;28;20180;-70
2022/01/18 03:54:55;;;;;;;17.60;7.60;;;2.40;99.90;;;;;;2081977;28;20187;-70
2022/01/18 03:55:57;;;;;;;17.70;7.22;;;2.30;99.90;;;;;;2082121;28;20185;-71
2022/01/18 03:56:58;;;;;;;15.05;7.15;;;2.30;99.90;;;;;;2090183;28;20190;-70
2022/01/18 03:57:58;;;;;;;18.40;7.77;;;2.30;99.90;;;;;;2081720;28;20201;-71
2022/01/18 03:58:59;;;;;;;12.87;6.33;;;2.30;99.90;;;;;;2082106;28;20183;-70
2022/01/18 04:00:00;;;;;;;11.07;5.70;;;2.40;99.90;;;;;;2082058;28;20265;-70
2022/01/18 04:01:01;;;;;;;14.40;6.00;;;2.30;99.90;;;;;;2090390;28;20190;-70
2022/01/18 04:02:01;;;;;;;13.73;6.80;;;2.30;99.90;;;;;;2082121;28;20169;-70
2022/01/18 04:03:02;;;;;;;15.80;7.50;;;2.30;99.90;;;;;;2073794;28;20176;-71
2022/01/18 04:04:03;;;;;;;14.97;6.70;;;2.30;99.90;;;;;;2073807;28;20191;-70
2022/01/18 04:05:04;;;;;;;14.17;6.30;;;2.30;99.90;;;;;;2073781;28;20248;-70
2022/01/18 04:06:05;;;;;;;14.77;7.70;;;2.30;99.90;;;;;;2082014;28;20170;-70
2022/01/18 04:07:06;;;;;;;15.93;8.70;;;2.30;99.90;;;;;;2082020;28;20485;-70
2022/01/18 04:08:07;;;;;;;13.73;6.60;;;2.30;99.90;;;;;;2081762;28;20194;-71
2022/01/18 04:09:08;;;;;;;14.10;7.23;;;2.30;99.90;;;;;;2073760;28;20181;-70
2022/01/18 04:10:10;;;;;;;19.23;8.33;;;2.30;99.90;;;;;;2081995;28;20178;-71
2022/01/18 04:11:10;;;;;;;17.65;7.82;;;2.30;99.90;;;;;;2082044;28;20198;-71
2022/01/18 04:12:11;;;;;;;14.53;6.83;;;2.20;99.90;;;;;;2081994;28;20182;-70
2022/01/18 04:13:12;;;;;;;14.27;6.73;;;2.30;99.90;;;;;;2073755;28;20174;-70
2022/01/18 04:14:12;;;;;;;11.23;5.77;;;2.40;99.90;;;;;;2082022;28;20185;-71
2022/01/18 04:15:16;;;;;;;9.17;5.67;;;2.40;99.90;;;;;;2073706;28;20179;-71
2022/01/18 04:16:17;;;;;;;13.40;5.93;;;2.40;99.90;;;;;;2082416;28;20183;-71
2022/01/18 04:17:34;;;;;;;11.10;5.50;;;2.40;99.90;;;;;;2081777;28;20549;-70
2022/01/18 04:18:51;;;;;;;16.98;7.40;;;2.40;99.90;;;;;;2082209;28;20192;-70
2022/01/18 04:27:39;;;;;;;16.35;6.50;;;2.40;99.90;;;;;;2082275;28;20261;-70
2022/01/18 04:28:43;;;;;;;13.77;6.88;;;2.30;99.90;;;;;;2081985;28;20173;-71
2022/01/18 04:29:44;;;;;;;15.77;7.43;;;2.40;99.90;;;;;;2081801;28;20192;-71
2022/01/18 04:30:44;;;;;;;20.33;8.20;;;2.30;99.90;;;;;;2081865;28;20182;-71
2022/01/18 04:31:45;;;;;;;12.27;5.90;;;2.40;99.90;;;;;;2081656;28;20182;-71
2022/01/18 04:32:46;;;;;;;13.47;5.63;;;2.40;99.90;;;;;;2081740;28;20570;-70
2022/01/18 04:33:47;;;;;;;13.83;6.43;;;2.40;99.90;;;;;;2081735;28;20206;-70
2022/01/18 04:34:47;;;;;;;15.43;7.07;;;2.50;99.90;;;;;;2081813;28;20279;-70
2022/01/18 04:35:48;;;;;;;14.87;6.07;;;2.50;99.90;;;;;;2081676;28;20184;-70
2022/01/18 04:36:49;;;;;;;16.77;6.37;;;2.50;99.90;;;;;;2082342;28;20531;-71
2022/01/18 04:37:50;;;;;;;13.33;6.10;;;2.50;99.90;;;;;;2081914;28;20438;-71
2022/01/18 04:38:50;;;;;;;13.10;6.50;;;2.50;99.90;;;;;;2081504;28;20213;-71
2022/01/18 04:39:51;;;;;;;12.23;6.67;;;2.50;99.90;;;;;;2081856;28;20612;-71
2022/01/18 04:40:52;;;;;;;11.97;5.20;;;2.60;99.90;;;;;;2090412;28;20180;-70
2022/01/18 04:41:53;;;;;;;11.77;6.57;;;2.50;99.90;;;;;;2082465;28;20177;-70
2022/01/18 04:48:57;;;;;;;15.13;6.70;;;2.50;99.90;;;;;;2080999;28;20162;-70
2022/01/18 04:49:58;;;;;;;16.05;6.72;;;2.40;99.90;;;;;;2084317;28;20230;-71
2022/01/18 04:51:09;;;;;;;12.50;5.77;;;2.40;99.90;;;;;;2090138;28;20178;-70
2022/01/18 04:52:12;;;;;;;18.20;7.15;;;2.50;99.90;;;;;;2082346;28;20171;-70
2022/01/18 04:53:12;;;;;;;15.70;6.82;;;2.50;99.90;;;;;;2082457;28;20662;-71
2022/01/18 04:54:15;;;;;;;11.33;6.27;;;2.40;99.90;;;;;;2082531;28;20183;-70
2022/01/18 04:55:18;;;;;;;16.92;6.78;;;2.40;99.90;;;;;;2081946;28;20211;-71
2022/01/18 04:57:53;;;;;;;13.32;6.53;;;2.40;99.90;;;;;;2089807;28;20694;-70
2022/01/18 04:58:53;;;;;;;12.23;6.05;;;2.40;99.90;;;;;;2086247;28;20187;-71
2022/01/18 04:59:54;;;;;;;12.50;6.00;;;2.40;99.90;;;;;;2082405;28;20226;-70
2022/01/18 05:01:01;;;;;;;14.50;6.97;;;2.50;99.90;;;;;;2081788;28;20183;-70
2022/01/18 05:02:01;;;;;;;11.65;6.18;;;2.50;99.90;;;;;;2082486;28;20156;-70
2022/01/18 05:03:02;;;;;;;14.67;7.33;;;2.50;99.90;;;;;;2089858;28;20179;-70
2022/01/18 05:04:03;;;;;;;14.33;7.43;;;2.50;99.90;;;;;;2082399;28;20266;-71
2022/01/18 05:05:04;;;;;;;14.43;8.07;;;2.50;99.90;;;;;;2082234;28;20266;-70
2022/01/18 05:06:12;;;;;;;15.10;7.00;;;2.50;99.90;;;;;;2081690;28;20961;-71
2022/01/18 05:07:15;;;;;;;17.73;7.82;;;2.50;99.90;;;;;;2081700;28;20158;-71
2022/01/18 05:08:16;;;;;;;19.98;7.90;;;2.50;99.90;;;;;;2081553;28;20242;-70
2022/01/18 05:09:17;;;;;;;18.20;7.13;;;2.50;99.90;;;;;;2073934;28;20237;-70
2022/01/18 05:10:20;;;;;;;13.80;6.30;;;2.50;99.90;;;;;;2081902;28;20209;-70
2022/01/18 05:11:24;;;;;;;9.65;5.15;;;2.40;99.90;;;;;;2082394;28;20244;-70
2022/01/18 05:12:45;;;;;;;11.75;5.68;;;2.40;99.90;;;;;;2082534;28;20234;-71
2022/01/18 05:14:03;;;;;;;12.15;6.90;;;2.50;99.90;;;;;;2082114;28;20188;-71
2022/01/18 05:15:11;;;;;;;20.27;10.00;;;2.50;99.90;;;;;;2087984;28;20257;-70
2022/01/18 05:21:21;;;;;;;14.60;7.93;;;2.60;99.90;;;;;;2061329;28;20283;-70
2022/01/18 05:23:41;;;;;;;14.15;6.60;;;2.60;99.90;;;;;;2081596;28;20180;-71
2022/01/18 05:24:41;;;;;;;16.17;6.30;;;2.50;99.90;;;;;;2081899;28;20682;-70
2022/01/18 05:25:45;;;;;;;19.27;7.97;;;2.50;99.90;;;;;;2073287;28;20652;-71
2022/01/18 05:26:46;;;;;;;15.50;7.97;;;2.40;99.90;;;;;;2073729;28;20208;-71
2022/01/18 05:27:47;;;;;;;15.00;7.53;;;2.40;99.90;;;;;;2081792;28;20218;-71
2022/01/18 05:28:48;;;;;;;15.17;8.50;;;2.40;99.90;;;;;;2082195;28;20644;-71
2022/01/18 05:29:49;;;;;;;16.10;7.97;;;2.40;99.90;;;;;;2082398;28;20182;-72
2022/01/18 05:30:50;;;;;;;14.27;7.53;;;2.40;99.90;;;;;;2082195;28;20748;-71
2022/01/18 05:31:51;;;;;;;16.33;7.55;;;2.50;99.90;;;;;;2081439;28;20184;-70
2022/01/18 05:32:51;;;;;;;14.03;7.97;;;2.50;99.90;;;;;;2073574;28;20547;-70
2022/01/18 05:33:53;;;;;;;17.23;8.17;;;2.50;99.90;;;;;;2081526;28;20652;-71
2022/01/18 05:34:53;;;;;;;18.00;8.07;;;2.60;99.90;;;;;;2073095;28;20193;-70
2022/01/18 05:35:54;;;;;;;20.30;7.80;;;2.50;99.90;;;;;;2073273;28;20659;-71
2022/01/18 05:36:55;;;;;;;16.60;7.63;;;2.40;99.90;;;;;;2081422;28;20191;-70
2022/01/18 05:37:55;;;;;;;25.17;8.73;;;2.40;99.90;;;;;;2081242;28;20235;-71
2022/01/18 05:38:56;;;;;;;26.77;10.00;;;2.40;99.90;;;;;;2081295;28;20273;-71
2022/01/18 05:39:57;;;;;;;22.30;8.80;;;2.40;99.90;;;;;;2081455;28;20194;-70
2022/01/18 05:40:57;;;;;;;32.73;10.47;;;2.40;99.90;;;;;;2081434;28;20667;-70
2022/01/18 05:41:58;;;;;;;37.07;10.73;;;2.30;99.90;;;;;;2081501;28;20182;-70
2022/01/18 05:42:59;;;;;;;31.83;11.13;;;2.30;99.90;;;;;;2081432;28;20190;-70
2022/01/18 05:43:59;;;;;;;20.87;9.23;;;2.30;99.90;;;;;;2073333;28;20191;-70
2022/01/18 05:45:00;;;;;;;28.40;11.30;;;2.30;99.90;;;;;;2081435;28;20246;-70
2022/01/18 05:46:01;;;;;;;36.17;10.70;;;2.40;99.90;;;;;;2081383;28;20660;-70
2022/01/18 05:47:02;;;;;;;48.45;12.30;;;2.40;99.90;;;;;;2081367;28;20182;-70
2022/01/18 05:48:03;;;;;;;23.67;10.57;;;2.40;99.90;;;;;;2081721;28;20687;-70
2022/01/18 05:49:04;;;;;;;36.85;12.90;;;2.50;99.90;;;;;;2081225;28;20190;-71
2022/01/18 05:50:07;;;;;;;48.90;13.10;;;2.50;99.90;;;;;;2073447;28;20192;-71
2022/01/18 05:51:08;;;;;;;49.35;15.15;;;2.50;99.90;;;;;;2073472;28;20656;-70
2022/01/18 05:52:09;;;;;;;37.38;10.13;;;2.50;99.90;;;;;;2073270;28;20188;-70
2022/01/18 05:53:10;;;;;;;47.77;12.80;;;2.60;99.90;;;;;;2081495;28;20541;-70
2022/01/18 05:54:10;;;;;;;29.80;9.83;;;2.50;99.90;;;;;;2081641;28;20173;-70
2022/01/18 05:55:11;;;;;;;25.23;10.23;;;2.60;99.90;;;;;;2081282;28;20712;-70
2022/01/18 05:56:12;;;;;;;22.20;8.10;;;2.60;99.90;;;;;;2081954;28;20174;-70
2022/01/18 05:57:12;;;;;;;28.47;8.17;;;2.50;99.90;;;;;;2081705;28;20178;-71
2022/01/18 05:58:13;;;;;;;21.80;8.50;;;2.60;99.90;;;;;;2081756;28;20751;-70
2022/01/18 05:59:23;;;;;;;31.83;10.70;;;2.60;99.90;;;;;;2082042;28;20665;-70
2022/01/18 06:00:25;;;;;;;30.95;9.30;;;2.60;99.90;;;;;;2081871;28;20251;-71
2022/01/18 06:01:31;;;;;;;30.30;8.05;;;2.60;99.90;;;;;;2081635;28;20186;-70
2022/01/18 06:02:42;;;;;;;30.10;14.10;;;2.50;99.90;;;;;;2073113;28;20239;-70
2022/01/18 06:07:37;;;;;;;18.67;6.78;;;2.40;99.90;;;;;;2080884;28;20632;-71
2022/01/18 06:08:38;;;;;;;18.30;7.30;;;2.50;99.90;;;;;;2075459;28;20215;-70
2022/01/18 06:09:38;;;;;;;22.87;7.73;;;2.50;99.90;;;;;;2081300;28;20194;-70
2022/01/18 06:10:40;;;;;;;18.63;7.63;;;2.50;99.90;;;;;;2081933;28;20272;-71
2022/01/18 06:11:41;;;;;;;21.63;7.45;;;2.50;99.90;;;;;;2081640;28;20189;-70
2022/01/18 06:12:42;;;;;;;37.38;8.50;;;2.40;99.90;;;;;;2081797;28;20261;-70
2022/01/18 06:13:42;;;;;;;13.63;5.77;;;2.40;99.90;;;;;;2081243;28;20708;-70
2022/01/18 06:14:43;;;;;;;24.20;7.73;;;2.40;99.90;;;;;;2073091;28;20632;-70
2022/01/18 06:15:44;;;;;;;46.05;10.52;;;2.40;99.90;;;;;;2081124;28;20209;-70
2022/01/18 06:16:45;;;;;;;39.57;10.03;;;2.30;99.90;;;;;;2072999;28;20198;-70
2022/01/18 06:17:46;;;;;;;25.63;7.07;;;2.30;99.90;;;;;;2072661;28;20194;-71
2022/01/18 06:18:47;;;;;;;25.40;7.13;;;2.30;99.90;;;;;;2081094;28;20182;-71
2022/01/18 06:19:47;;;;;;;18.43;7.23;;;2.40;99.90;;;;;;2080918;28;20210;-71
2022/01/18 06:20:48;;;;;;;26.80;7.93;;;2.50;99.90;;;;;;2081308;28;20185;-71
2022/01/18 06:21:49;;;;;;;25.67;7.40;;;2.40;99.90;;;;;;2081225;28;20179;-72
2022/01/18 06:22:51;;;;;;;24.57;7.57;;;2.50;99.90;;;;;;2080905;28;20292;-71
2022/01/18 06:23:52;;;;;;;19.48;6.45;;;2.50;99.90;;;;;;2081024;28;20183;-70
2022/01/18 06:24:53;;;;;;;15.37;6.47;;;2.50;99.90;;;;;;2080982;28;20181;-71
2022/01/18 06:25:54;;;;;;;26.63;8.47;;;2.50;99.90;;;;;;2081130;28;20238;-71
2022/01/18 06:26:54;;;;;;;16.20;6.13;;;2.50;99.90;;;;;;2081163;28;20244;-71
2022/01/18 06:27:55;;;;;;;20.00;7.43;;;2.50;99.90;;;;;;2072498;28;20622;-71
2022/01/18 06:28:56;;;;;;;24.03;7.23;;;2.50;99.90;;;;;;2072872;28;20187;-70
2022/01/18 06:29:57;;;;;;;24.50;7.32;;;2.60;99.90;;;;;;2081083;28;20205;-70